createdAt,value
2023-05-19T00:01:01.107Z,5.65
2023-05-19T00:03:28.522Z,5.59
2023-05-19T00:05:58.411Z,5.59
2023-05-19T00:08:30.702Z,5.54
2023-05-19T00:10:57.848Z,5.50
2023-05-19T00:13:25.303Z,5.43
2023-05-19T00:15:52.824Z,5.36
2023-05-19T00:18:19.567Z,5.31
2023-05-19T00:20:46.296Z,5.29
2023-05-19T00:23:12.856Z,5.27
2023-05-19T00:25:40.905Z,5.25
2023-05-19T00:28:07.442Z,5.21
2023-05-19T00:30:34.257Z,5.18
2023-05-19T00:33:01.106Z,5.18
2023-05-19T00:35:27.687Z,5.13
2023-05-19T00:37:54.250Z,5.09
2023-05-19T00:40:21.734Z,5.06
2023-05-19T00:42:49.595Z,5.03
2023-05-19T00:45:16.112Z,4.98
2023-05-19T00:47:42.969Z,4.90
2023-05-19T00:50:10.324Z,4.84
2023-05-19T00:52:37.066Z,4.79
2023-05-19T00:55:04.037Z,4.74
2023-05-19T00:57:30.781Z,4.69
2023-05-19T00:59:58.986Z,4.64
2023-05-19T01:02:25.620Z,4.57
2023-05-19T01:04:52.371Z,4.48
2023-05-19T01:07:19.166Z,4.44
2023-05-19T01:09:47.152Z,4.42
2023-05-19T01:12:14.263Z,4.39
2023-05-19T01:14:41.328Z,4.31
2023-05-19T01:17:16.086Z,4.28
2023-05-19T01:19:57.387Z,4.20
2023-05-19T01:22:39.767Z,4.16
2023-05-19T01:25:36.051Z,4.11
2023-05-19T01:28:32.737Z,4.05
2023-05-19T01:31:01.719Z,3.99
2023-05-19T01:33:30.839Z,3.94
2023-05-19T01:35:59.003Z,3.94
2023-05-19T01:38:28.147Z,3.87
2023-05-19T01:40:56.369Z,3.81
2023-05-19T01:43:26.269Z,3.76
2023-05-19T01:45:53.625Z,3.68
2023-05-19T01:48:22.683Z,3.63
2023-05-19T01:50:49.358Z,3.58
2023-05-19T01:53:16.050Z,3.54
2023-05-19T01:55:44.518Z,3.53
2023-05-19T01:58:18.409Z,3.51
2023-05-19T02:00:53.382Z,3.50
2023-05-19T02:03:53.964Z,3.49
2023-05-19T02:06:32.864Z,3.36
2023-05-19T02:09:04.040Z,3.32
2023-05-19T02:11:36.651Z,3.32
2023-05-19T02:14:08.586Z,3.29
2023-05-19T02:16:36.502Z,3.24
2023-05-19T02:19:04.806Z,3.22
2023-05-19T02:21:31.546Z,3.19
2023-05-19T02:23:58.372Z,3.12
2023-05-19T02:26:25.221Z,3.10
2023-05-19T02:28:51.729Z,3.06
2023-05-19T02:31:18.463Z,2.98
2023-05-19T02:33:45.051Z,2.96
2023-05-19T02:36:12.998Z,2.91
2023-05-19T02:38:39.568Z,2.86
2023-05-19T02:41:06.375Z,2.81
2023-05-19T02:43:33.038Z,2.80
2023-05-19T02:45:59.610Z,2.80
2023-05-19T02:48:26.273Z,2.79
2023-05-19T02:50:52.836Z,2.73
2023-05-19T02:53:20.947Z,2.68
2023-05-19T02:55:47.563Z,2.63
2023-05-19T02:58:14.066Z,2.59
2023-05-19T03:00:40.566Z,2.57
2023-05-19T03:03:07.282Z,2.55
2023-05-19T03:05:33.926Z,2.50
2023-05-19T03:08:00.587Z,2.47
2023-05-19T03:10:28.511Z,2.41
2023-05-19T03:12:55.072Z,2.42
2023-05-19T03:15:21.579Z,2.39
2023-05-19T03:17:48.391Z,2.35
2023-05-19T03:20:15.282Z,2.31
2023-05-19T03:22:41.878Z,2.25
2023-05-19T03:25:09.241Z,2.24
2023-05-19T03:27:37.343Z,2.23
2023-05-19T03:30:06.478Z,2.22
2023-05-19T03:32:33.439Z,2.21
2023-05-19T03:35:00.033Z,2.18
2023-05-19T03:37:26.716Z,2.16
2023-05-19T03:39:53.838Z,2.15
2023-05-19T03:42:20.394Z,2.15
2023-05-19T03:44:48.461Z,2.16
2023-05-19T03:47:15.046Z,2.12
2023-05-19T03:49:41.617Z,2.13
2023-05-19T03:52:08.148Z,2.13
2023-05-19T03:54:34.751Z,2.14
2023-05-19T03:57:01.435Z,2.14
2023-05-19T03:59:28.166Z,2.15
2023-05-19T04:01:56.037Z,2.13
2023-05-19T04:04:22.834Z,2.14
2023-05-19T04:06:49.545Z,2.16
2023-05-19T04:09:16.315Z,2.21
2023-05-19T04:11:43.110Z,2.20
2023-05-19T04:14:09.781Z,2.19
2023-05-19T04:16:36.510Z,2.21
2023-05-19T04:19:04.699Z,2.22
2023-05-19T04:21:31.510Z,2.23
2023-05-19T04:23:58.129Z,2.23
2023-05-19T04:26:24.884Z,2.23
2023-05-19T04:28:51.395Z,2.22
2023-05-19T04:31:18.143Z,2.24
2023-05-19T04:33:44.743Z,2.26
2023-05-19T04:36:12.648Z,2.26
2023-05-19T04:38:40.115Z,2.28
2023-05-19T04:41:06.873Z,2.27
2023-05-19T04:43:33.408Z,2.27
2023-05-19T04:46:00.007Z,2.29
2023-05-19T04:48:26.580Z,2.31
2023-05-19T04:50:53.216Z,2.30
2023-05-19T04:53:21.116Z,2.33
2023-05-19T04:55:47.718Z,2.36
2023-05-19T04:58:14.329Z,2.41
2023-05-19T05:00:41.024Z,2.43
2023-05-19T05:03:07.978Z,2.46
2023-05-19T05:05:35.136Z,2.50
2023-05-19T05:08:01.913Z,2.55
2023-05-19T05:10:29.976Z,2.58
2023-05-19T05:12:57.118Z,2.60
2023-05-19T05:15:24.129Z,2.64
2023-05-19T05:17:51.194Z,2.69
2023-05-19T05:20:18.560Z,2.66
2023-05-19T05:22:45.639Z,2.72
2023-05-19T05:25:13.965Z,2.75
2023-05-19T05:27:42.021Z,2.82
2023-05-19T05:30:09.234Z,2.90
2023-05-19T05:32:36.028Z,2.95
2023-05-19T05:35:02.884Z,3.02
2023-05-19T05:37:30.583Z,3.09
2023-05-19T05:39:57.189Z,3.20
2023-05-19T05:42:23.905Z,3.30
2023-05-19T05:44:52.029Z,3.44
2023-05-19T05:47:19.108Z,3.60
2023-05-19T05:49:46.235Z,3.75
2023-05-19T05:52:13.021Z,3.96
2023-05-19T05:54:40.286Z,4.16
2023-05-19T05:57:07.825Z,4.36
2023-05-19T05:59:34.401Z,4.65
2023-05-19T06:02:02.713Z,5.02
2023-05-19T06:04:29.488Z,5.39
2023-05-19T06:06:56.073Z,5.70
2023-05-19T06:09:25.449Z,5.94
2023-05-19T06:11:52.165Z,6.05
2023-05-19T06:14:18.680Z,6.19
2023-05-19T06:16:45.195Z,6.36
2023-05-19T06:19:13.674Z,6.59
2023-05-19T06:21:40.408Z,6.69
2023-05-19T06:24:07.425Z,6.84
2023-05-19T06:26:34.003Z,7.12
2023-05-19T06:29:00.563Z,7.34
2023-05-19T06:31:27.172Z,7.29
2023-05-19T06:33:53.880Z,7.41
2023-05-19T06:36:21.908Z,7.47
2023-05-19T06:38:48.582Z,7.54
2023-05-19T06:41:15.214Z,7.74
2023-05-19T06:43:42.245Z,7.77
2023-05-19T06:46:08.829Z,7.90
2023-05-19T06:48:35.496Z,8.16
2023-05-19T06:51:02.027Z,8.49
2023-05-19T06:53:30.149Z,8.83
2023-05-19T06:55:59.976Z,9.10
2023-05-19T06:58:27.080Z,9.24
2023-05-19T07:00:53.676Z,9.36
2023-05-19T07:03:20.266Z,9.43
2023-05-19T07:05:46.945Z,9.51
2023-05-19T07:08:13.656Z,9.70
2023-05-19T07:10:41.546Z,9.83
2023-05-19T07:13:08.081Z,9.99
2023-05-19T07:15:34.634Z,10.35
2023-05-19T07:18:01.234Z,10.55
2023-05-19T07:20:27.972Z,10.68
2023-05-19T07:22:54.549Z,10.92
2023-05-19T07:25:21.251Z,11.15
2023-05-19T07:27:49.119Z,11.14
2023-05-19T07:30:15.782Z,11.31
2023-05-19T07:32:42.388Z,11.47
2023-05-19T07:35:09.213Z,11.64
2023-05-19T07:37:35.795Z,11.67
2023-05-19T07:40:02.417Z,12.00
2023-05-19T07:42:29.160Z,12.29
2023-05-19T07:44:57.073Z,12.46
2023-05-19T07:47:23.787Z,12.67
2023-05-19T07:49:51.809Z,12.91
2023-05-19T07:52:18.691Z,13.34
2023-05-19T07:54:45.806Z,13.70
2023-05-19T07:57:12.523Z,13.78
2023-05-19T07:59:39.052Z,14.04
2023-05-19T08:02:07.484Z,14.35
2023-05-19T08:04:34.114Z,14.70
2023-05-19T08:07:00.703Z,14.96
2023-05-19T08:09:27.259Z,15.21
2023-05-19T08:11:54.027Z,15.41
2023-05-19T08:14:20.689Z,15.70
2023-05-19T08:16:47.256Z,16.08
2023-05-19T08:19:15.416Z,16.46
2023-05-19T08:21:41.954Z,16.45
2023-05-19T08:24:08.982Z,16.78
2023-05-19T08:26:37.598Z,16.96
2023-05-19T08:29:04.777Z,17.25
2023-05-19T08:31:31.759Z,17.54
2023-05-19T08:33:58.378Z,17.55
2023-05-19T08:36:26.436Z,17.79
2023-05-19T08:38:52.986Z,17.94
2023-05-19T08:41:19.707Z,18.23
2023-05-19T08:43:46.240Z,18.39
2023-05-19T08:46:14.188Z,18.50
2023-05-19T08:48:44.112Z,18.26
2023-05-19T08:51:23.003Z,17.97
2023-05-19T08:53:53.259Z,17.91
2023-05-19T08:56:21.974Z,17.91
2023-05-19T08:58:50.740Z,17.85
2023-05-19T09:01:19.413Z,18.24
2023-05-19T09:03:47.318Z,18.50
2023-05-19T09:06:14.034Z,18.99
2023-05-19T09:08:41.348Z,18.68
2023-05-19T09:11:10.426Z,18.69
2023-05-19T09:13:37.207Z,18.36
2023-05-19T09:16:04.357Z,18.59
2023-05-19T09:18:31.417Z,19.02
2023-05-19T09:20:59.209Z,19.43
2023-05-19T09:23:27.844Z,19.80
2023-05-19T09:25:54.477Z,19.89
2023-05-19T09:28:26.820Z,19.61
2023-05-19T09:31:01.090Z,19.27
2023-05-19T09:33:27.834Z,19.40
2023-05-19T09:35:54.978Z,19.38
2023-05-19T09:38:22.208Z,19.76
2023-05-19T09:40:49.039Z,20.22
2023-05-19T09:43:15.649Z,20.43
2023-05-19T09:45:43.531Z,20.39
2023-05-19T09:48:10.103Z,20.92
2023-05-19T09:50:37.302Z,21.07
2023-05-19T09:53:03.959Z,21.24
2023-05-19T09:55:31.081Z,21.28
2023-05-19T09:57:57.864Z,20.92
2023-05-19T10:00:24.766Z,20.41
2023-05-19T10:02:53.796Z,20.98
2023-05-19T10:05:20.866Z,20.85
2023-05-19T10:07:50.757Z,20.28
2023-05-19T10:10:17.808Z,20.48
2023-05-19T10:12:45.315Z,20.89
2023-05-19T10:15:13.288Z,21.13
2023-05-19T10:17:41.367Z,21.66
2023-05-19T10:20:12.022Z,22.22
2023-05-19T10:22:38.852Z,22.39
2023-05-19T10:25:06.999Z,22.18
2023-05-19T10:27:35.922Z,22.34
2023-05-19T10:30:11.469Z,22.78
2023-05-19T10:32:41.356Z,22.74
2023-05-19T10:35:36.927Z,23.15
2023-05-19T10:38:14.832Z,23.04
2023-05-19T10:40:51.214Z,22.61
2023-05-19T10:43:35.991Z,22.38
2023-05-19T10:46:04.113Z,22.34
2023-05-19T10:48:33.957Z,22.21
2023-05-19T10:51:02.406Z,22.07
2023-05-19T10:53:32.450Z,21.83
2023-05-19T10:56:02.213Z,22.20
2023-05-19T10:58:49.637Z,22.34
2023-05-19T11:01:17.453Z,22.50
2023-05-19T11:03:48.945Z,22.48
2023-05-19T11:06:26.144Z,22.72
2023-05-19T11:08:54.062Z,22.86
2023-05-19T11:11:20.989Z,22.68
2023-05-19T11:13:48.569Z,22.79
2023-05-19T11:16:18.979Z,22.70
2023-05-19T11:18:48.644Z,22.80
2023-05-19T11:21:15.290Z,23.16
2023-05-19T11:23:43.424Z,23.72
2023-05-19T11:26:10.063Z,23.56
2023-05-19T11:28:37.333Z,23.57
2023-05-19T11:31:05.035Z,23.74
2023-05-19T11:33:32.409Z,23.97
2023-05-19T11:35:59.267Z,24.44
2023-05-19T11:38:26.490Z,24.41
2023-05-19T11:40:55.228Z,24.50
2023-05-19T11:43:23.370Z,24.35
2023-05-19T11:45:50.029Z,23.90
2023-05-19T11:48:16.953Z,23.81
2023-05-19T11:50:43.832Z,23.90
2023-05-19T11:53:12.828Z,23.94
2023-05-19T11:55:42.504Z,24.15
2023-05-19T11:58:10.586Z,24.04
2023-05-19T12:00:40.277Z,23.50
2023-05-19T12:03:08.325Z,23.77
2023-05-19T12:05:40.770Z,23.98
2023-05-19T12:08:08.807Z,24.05
2023-05-19T12:10:35.550Z,23.80
2023-05-19T12:13:03.020Z,23.50
2023-05-19T12:15:31.947Z,22.96
2023-05-19T12:18:00.474Z,22.34
2023-05-19T12:20:28.574Z,23.03
2023-05-19T12:22:55.921Z,23.27
2023-05-19T12:25:23.388Z,23.75
2023-05-19T12:27:50.599Z,24.05
2023-05-19T12:30:17.191Z,24.03
2023-05-19T12:32:46.599Z,23.74
2023-05-19T12:35:15.788Z,23.87
2023-05-19T12:37:42.478Z,23.57
2023-05-19T12:40:10.224Z,22.93
2023-05-19T12:42:37.028Z,22.28
2023-05-19T12:45:04.669Z,21.94
2023-05-19T12:47:32.384Z,21.74
2023-05-19T12:50:04.241Z,23.40
2023-05-19T12:52:31.929Z,24.33
2023-05-19T12:54:59.361Z,25.16
2023-05-19T12:57:26.256Z,25.30
2023-05-19T12:59:53.423Z,24.53
2023-05-19T13:02:20.134Z,23.74
2023-05-19T13:04:46.819Z,24.26
2023-05-19T13:07:14.715Z,24.65
2023-05-19T13:09:41.300Z,24.98
2023-05-19T13:12:08.033Z,25.16
2023-05-19T13:14:34.593Z,25.38
2023-05-19T13:17:01.179Z,24.80
2023-05-19T13:19:27.791Z,25.21
2023-05-19T13:21:54.424Z,24.84
2023-05-19T13:24:22.318Z,25.26
2023-05-19T13:26:48.853Z,25.22
2023-05-19T13:29:15.542Z,24.72
2023-05-19T13:31:42.121Z,24.42
2023-05-19T13:34:08.732Z,24.64
2023-05-19T13:36:35.302Z,24.50
2023-05-19T13:39:02.105Z,24.78
2023-05-19T13:41:30.332Z,25.15
2023-05-19T13:43:58.335Z,24.56
2023-05-19T13:46:36.673Z,25.09
2023-05-19T13:49:10.376Z,24.78
2023-05-19T13:51:37.083Z,24.39
2023-05-19T13:54:03.841Z,24.39
2023-05-19T13:56:31.750Z,24.60
2023-05-19T13:58:58.388Z,24.65
2023-05-19T14:01:24.971Z,24.74
2023-05-19T14:03:51.832Z,24.56
2023-05-19T14:06:18.708Z,24.29
2023-05-19T14:08:45.625Z,23.74
2023-05-19T14:11:17.538Z,23.41
2023-05-19T14:13:45.464Z,23.42
2023-05-19T14:16:12.071Z,23.31
2023-05-19T14:18:38.910Z,23.03
2023-05-19T14:21:05.928Z,23.05
2023-05-19T14:23:32.632Z,22.94
2023-05-19T14:25:59.221Z,22.77
2023-05-19T14:28:25.861Z,22.49
2023-05-19T14:30:53.835Z,21.66
2023-05-19T14:33:20.744Z,21.49
2023-05-19T14:35:47.349Z,21.67
2023-05-19T14:38:14.040Z,21.76
2023-05-19T14:40:40.690Z,22.20
2023-05-19T14:43:07.543Z,22.14
2023-05-19T14:45:34.116Z,22.20
2023-05-19T14:48:02.350Z,22.27
2023-05-19T14:50:29.410Z,22.24
2023-05-19T14:52:56.646Z,22.23
2023-05-19T14:55:23.387Z,22.27
2023-05-19T14:57:50.136Z,21.94
2023-05-19T15:00:17.069Z,21.82
2023-05-19T15:02:44.176Z,22.00
2023-05-19T15:05:12.322Z,22.02
2023-05-19T15:07:39.097Z,22.05
2023-05-19T15:10:06.409Z,21.77
2023-05-19T15:12:33.147Z,21.84
2023-05-19T15:14:59.708Z,21.59
2023-05-19T15:17:26.588Z,21.30
2023-05-19T15:19:53.296Z,21.27
2023-05-19T15:22:21.254Z,21.07
2023-05-19T15:24:47.812Z,20.78
2023-05-19T15:27:14.518Z,21.10
2023-05-19T15:29:41.219Z,21.15
2023-05-19T15:32:08.649Z,21.29
2023-05-19T15:34:35.214Z,21.00
2023-05-19T15:37:01.886Z,21.18
2023-05-19T15:39:30.333Z,20.85
2023-05-19T15:41:56.901Z,20.76
2023-05-19T15:44:23.426Z,20.55
2023-05-19T15:46:49.960Z,20.39
2023-05-19T15:49:16.572Z,20.31
2023-05-19T15:51:43.302Z,20.39
2023-05-19T15:54:10.057Z,20.39
2023-05-19T15:56:37.996Z,20.35
2023-05-19T15:59:04.677Z,20.41
2023-05-19T16:01:31.449Z,20.24
2023-05-19T16:03:58.130Z,20.32
2023-05-19T16:06:24.906Z,20.19
2023-05-19T16:08:51.557Z,20.03
2023-05-19T16:11:18.107Z,19.91
2023-05-19T16:13:46.070Z,19.81
2023-05-19T16:16:12.642Z,19.76
2023-05-19T16:18:39.230Z,19.45
2023-05-19T16:21:06.090Z,19.28
2023-05-19T16:23:32.786Z,19.33
2023-05-19T16:25:59.331Z,19.28
2023-05-19T16:28:25.920Z,19.15
2023-05-19T16:30:57.086Z,19.03
2023-05-19T16:33:23.832Z,18.99
2023-05-19T16:35:50.434Z,18.72
2023-05-19T16:38:17.208Z,18.63
2023-05-19T16:40:43.826Z,18.64
2023-05-19T16:43:10.571Z,18.33
2023-05-19T16:45:37.170Z,18.29
2023-05-19T16:48:05.718Z,18.11
2023-05-19T16:50:32.332Z,17.88
2023-05-19T16:52:58.897Z,17.71
2023-05-19T16:55:25.567Z,17.61
2023-05-19T16:57:52.157Z,17.48
2023-05-19T17:00:19.478Z,17.46
2023-05-19T17:02:46.227Z,17.41
2023-05-19T17:05:14.204Z,17.36
2023-05-19T17:07:40.790Z,17.33
2023-05-19T17:10:08.582Z,17.30
2023-05-19T17:12:35.100Z,17.38
2023-05-19T17:15:01.684Z,17.43
2023-05-19T17:17:28.254Z,17.48
2023-05-19T17:19:54.839Z,17.60
2023-05-19T17:22:22.727Z,17.51
2023-05-19T17:24:49.306Z,17.54
2023-05-19T17:27:15.857Z,17.51
2023-05-19T17:29:42.454Z,17.46
2023-05-19T17:32:09.086Z,17.29
2023-05-19T17:34:35.715Z,17.26
2023-05-19T17:37:02.417Z,17.22
2023-05-19T17:39:30.313Z,17.05
2023-05-19T17:41:56.864Z,17.02
2023-05-19T17:44:23.436Z,17.05
2023-05-19T17:46:50.161Z,16.84
2023-05-19T17:49:16.766Z,16.77
2023-05-19T17:51:43.816Z,16.62
2023-05-19T17:54:11.071Z,16.51
2023-05-19T17:56:41.424Z,16.37
2023-05-19T17:59:08.544Z,16.21
2023-05-19T18:01:35.762Z,16.05
2023-05-19T18:04:02.947Z,15.92
2023-05-19T18:06:30.315Z,15.82
2023-05-19T18:08:58.732Z,15.66
2023-05-19T18:11:25.824Z,15.57
2023-05-19T18:13:53.729Z,15.37
2023-05-19T18:16:20.457Z,15.31
2023-05-19T18:18:47.105Z,15.17
2023-05-19T18:21:13.641Z,15.16
2023-05-19T18:23:40.661Z,15.02
2023-05-19T18:26:07.304Z,14.97
2023-05-19T18:28:34.066Z,14.91
2023-05-19T18:31:04.563Z,14.78
2023-05-19T18:33:31.440Z,14.70
2023-05-19T18:35:58.444Z,14.62
2023-05-19T18:38:25.021Z,14.52
2023-05-19T18:40:52.142Z,14.43
2023-05-19T18:43:19.137Z,14.34
2023-05-19T18:45:46.758Z,14.29
2023-05-19T18:48:14.773Z,14.19
2023-05-19T18:50:41.482Z,14.12
2023-05-19T18:53:08.027Z,14.05
2023-05-19T18:55:37.087Z,14.00
2023-05-19T18:58:04.941Z,13.94
2023-05-19T19:00:31.962Z,13.80
2023-05-19T19:02:58.721Z,13.75
2023-05-19T19:05:26.883Z,13.64
2023-05-19T19:07:53.484Z,13.54
2023-05-19T19:10:20.249Z,13.50
2023-05-19T19:12:46.849Z,13.46
2023-05-19T19:15:14.040Z,13.34
2023-05-19T19:17:40.824Z,13.27
2023-05-19T19:20:08.849Z,13.18
2023-05-19T19:22:37.065Z,13.15
2023-05-19T19:25:04.137Z,13.08
2023-05-19T19:27:30.691Z,13.05
2023-05-19T19:29:57.609Z,12.96
2023-05-19T19:32:24.208Z,12.80
2023-05-19T19:34:50.904Z,12.75
2023-05-19T19:37:17.598Z,12.73
2023-05-19T19:39:45.534Z,12.70
2023-05-19T19:42:12.215Z,12.68
2023-05-19T19:44:38.769Z,12.67
2023-05-19T19:47:05.501Z,12.61
2023-05-19T19:49:32.335Z,12.57
2023-05-19T19:51:59.033Z,12.51
2023-05-19T19:54:25.658Z,12.47
2023-05-19T19:56:53.621Z,12.41
2023-05-19T19:59:20.204Z,12.34
2023-05-19T20:01:46.773Z,12.28
2023-05-19T20:04:13.588Z,12.22
2023-05-19T20:06:40.213Z,12.18
2023-05-19T20:09:06.828Z,12.10
2023-05-19T20:11:33.455Z,12.02
2023-05-19T20:14:01.502Z,11.98
2023-05-19T20:16:28.132Z,11.95
2023-05-19T20:18:54.858Z,11.85
2023-05-19T20:21:21.651Z,11.80
2023-05-19T20:23:48.153Z,11.77
2023-05-19T20:26:14.868Z,11.77
2023-05-19T20:28:41.552Z,11.75
2023-05-19T20:31:09.513Z,11.74
2023-05-19T20:33:36.229Z,11.74
2023-05-19T20:36:02.827Z,11.74
2023-05-19T20:38:29.532Z,11.71
2023-05-19T20:40:56.089Z,11.68
2023-05-19T20:43:22.659Z,11.64
2023-05-19T20:45:49.477Z,11.66
2023-05-19T20:48:17.414Z,11.63
2023-05-19T20:50:44.127Z,11.59
2023-05-19T20:53:10.687Z,11.53
2023-05-19T20:55:38.411Z,11.47
2023-05-19T20:58:05.210Z,11.43
2023-05-19T21:00:32.200Z,11.42
2023-05-19T21:02:59.193Z,11.41
2023-05-19T21:05:27.185Z,11.34
2023-05-19T21:07:53.789Z,11.29
2023-05-19T21:10:20.478Z,11.22
2023-05-19T21:12:47.262Z,11.17
2023-05-19T21:15:14.154Z,11.16
2023-05-19T21:17:40.768Z,11.11
2023-05-19T21:20:08.753Z,11.08
2023-05-19T21:22:36.659Z,11.08
2023-05-19T21:25:03.392Z,11.05
2023-05-19T21:27:29.948Z,10.99
2023-05-19T21:29:56.533Z,10.90
2023-05-19T21:32:23.130Z,10.86
2023-05-19T21:34:49.698Z,10.85
2023-05-19T21:37:16.210Z,10.86
2023-05-19T21:39:44.345Z,10.84
2023-05-19T21:42:11.012Z,10.82
2023-05-19T21:44:37.673Z,10.79
2023-05-19T21:47:04.360Z,10.74
2023-05-19T21:49:31.103Z,10.71
2023-05-19T21:51:57.668Z,10.69
2023-05-19T21:54:24.388Z,10.62
2023-05-19T21:56:52.301Z,10.52
2023-05-19T21:59:18.860Z,10.45
2023-05-19T22:01:45.635Z,10.37
2023-05-19T22:04:12.193Z,10.31
2023-05-19T22:06:38.841Z,10.30
2023-05-19T22:09:05.378Z,10.24
2023-05-19T22:11:32.106Z,10.27
2023-05-19T22:14:00.006Z,10.22
2023-05-19T22:16:26.760Z,10.21
2023-05-19T22:18:53.438Z,10.17
2023-05-19T22:21:20.568Z,10.17
2023-05-19T22:23:47.090Z,10.13
2023-05-19T22:26:13.924Z,10.12
2023-05-19T22:28:40.647Z,10.09
2023-05-19T22:31:08.764Z,10.10
2023-05-19T22:33:35.309Z,10.08
2023-05-19T22:36:02.019Z,10.04
2023-05-19T22:38:28.569Z,9.97
2023-05-19T22:40:55.183Z,9.90
2023-05-19T22:43:21.732Z,9.87
2023-05-19T22:45:48.541Z,9.80
2023-05-19T22:48:16.621Z,9.72
2023-05-19T22:50:43.438Z,9.63
2023-05-19T22:53:10.140Z,9.61
2023-05-19T22:55:37.021Z,9.60
2023-05-19T22:58:03.719Z,9.57
2023-05-19T23:00:30.271Z,9.54
2023-05-19T23:02:56.876Z,9.49
2023-05-19T23:05:24.993Z,9.41
2023-05-19T23:07:51.620Z,9.37
2023-05-19T23:10:18.211Z,9.35
2023-05-19T23:12:44.817Z,9.27
2023-05-19T23:15:11.649Z,9.29
2023-05-19T23:17:38.319Z,9.24
2023-05-19T23:20:06.076Z,9.28
2023-05-19T23:22:33.975Z,9.28
2023-05-19T23:25:00.638Z,9.26
2023-05-19T23:27:27.152Z,9.26
2023-05-19T23:29:53.660Z,9.33
2023-05-19T23:32:20.158Z,9.46
2023-05-19T23:34:47.203Z,9.52
2023-05-19T23:37:13.724Z,9.63
2023-05-19T23:39:41.773Z,9.72
2023-05-19T23:42:08.344Z,9.81
2023-05-19T23:44:34.963Z,9.91
2023-05-19T23:47:01.769Z,9.98
2023-05-19T23:49:28.333Z,10.01
2023-05-19T23:51:54.889Z,10.13
2023-05-19T23:54:21.503Z,10.17
2023-05-19T23:56:49.534Z,10.13
2023-05-19T23:59:16.091Z,10.15
